createdAt,value
2022-11-24T00:01:31.282Z,99660.53
2022-11-24T00:04:05.928Z,99664.19
2022-11-24T00:06:35.963Z,99659.56
2022-11-24T00:09:11.002Z,99665.84
2022-11-24T00:11:38.129Z,99664.75
2022-11-24T00:14:06.847Z,99665.59
2022-11-24T00:16:37.383Z,99669.97
2022-11-24T00:19:09.482Z,99671.63
2022-11-24T00:21:38.741Z,99669.97
2022-11-24T00:24:09.702Z,99670.41
2022-11-24T00:26:40.127Z,99670.41
2022-11-24T00:29:10.982Z,99671.50
2022-11-24T00:31:44.684Z,99670.84
2022-11-24T00:34:14.826Z,99671.81
2022-11-24T00:36:42.685Z,99677.16
2022-11-24T00:39:15.896Z,99666.63
2022-11-24T00:41:43.582Z,99677.16
2022-11-24T00:44:12.173Z,99670.28
2022-11-24T00:46:39.103Z,99671.09
2022-11-24T00:49:08.796Z,99680.94
2022-11-24T00:51:35.515Z,99679.22
2022-11-24T00:54:02.840Z,99675.59
2022-11-24T00:56:30.481Z,99686.00
2022-11-24T00:58:57.863Z,99686.28
2022-11-24T01:01:30.957Z,99685.44
2022-11-24T01:04:04.012Z,99687.38
2022-11-24T01:06:32.681Z,99691.88
2022-11-24T01:08:59.797Z,99682.28
2022-11-24T01:11:55.085Z,99678.22
2022-11-24T01:14:25.466Z,99697.72
2022-11-24T01:16:52.911Z,99698.69
2022-11-24T01:19:20.386Z,99694.53
2022-11-24T01:21:47.877Z,99695.00
2022-11-24T01:24:15.191Z,99697.50
2022-11-24T01:26:44.320Z,99698.09
2022-11-24T01:29:14.671Z,99703.31
2022-11-24T01:31:41.505Z,99697.81
2022-11-24T01:34:10.048Z,99698.41
2022-11-24T01:36:36.838Z,99700.09
2022-11-24T01:39:03.701Z,99697.28
2022-11-24T01:41:30.469Z,99701.78
2022-11-24T01:44:00.264Z,99707.84
2022-11-24T01:46:35.264Z,99704.34
2022-11-24T01:49:35.959Z,99709.06
2022-11-24T01:52:12.680Z,99708.25
2022-11-24T01:54:51.709Z,99711.03
2022-11-24T01:57:36.444Z,99714.53
2022-11-24T02:00:12.859Z,99715.53
2022-11-24T02:02:42.779Z,99720.84
2022-11-24T02:05:43.768Z,99723.53
2022-11-24T02:08:31.310Z,99728.03
2022-11-24T02:10:58.282Z,99725.34
2022-11-24T02:13:25.257Z,99730.53
2022-11-24T02:15:54.278Z,99729.56
2022-11-24T02:18:21.356Z,99726.06
2022-11-24T02:20:48.174Z,99727.63
2022-11-24T02:23:31.199Z,99726.75
2022-11-24T02:26:47.253Z,99727.34
2022-11-24T02:29:15.430Z,99724.69
2022-11-24T02:31:56.659Z,99729.06
2022-11-24T02:34:23.641Z,99730.72
2022-11-24T02:36:50.293Z,99731.56
2022-11-24T02:39:20.012Z,99736.19
2022-11-24T02:41:58.836Z,99743.06
2022-11-24T02:44:35.624Z,99742.84
2022-11-24T02:47:13.001Z,99739.16
2022-11-24T02:49:40.714Z,99742.69
2022-11-24T02:52:10.948Z,99737.22
2022-11-24T02:54:37.754Z,99738.94
2022-11-24T02:57:04.943Z,99737.94
2022-11-24T02:59:32.077Z,99735.00
2022-11-24T03:01:58.864Z,99731.34
2022-11-24T03:04:28.704Z,99735.84
2022-11-24T03:06:57.368Z,99745.53
2022-11-24T03:09:24.321Z,99749.03
2022-11-24T03:11:50.960Z,99753.25
2022-11-24T03:14:19.387Z,99745.13
2022-11-24T03:16:46.057Z,99749.34
2022-11-24T03:32:28.630Z,99762.06
2022-11-24T03:34:58.076Z,99762.88
2022-11-24T03:37:24.735Z,99762.06
2022-11-24T03:39:51.448Z,99773.69
2022-11-24T03:42:19.307Z,99771.88
2022-11-24T03:44:46.121Z,99778.19
2022-11-24T03:47:15.472Z,99779.31
2022-11-24T03:49:44.762Z,99779.44
2022-11-24T03:52:14.386Z,99772.41
2022-11-24T03:54:48.988Z,99788.16
2022-11-24T03:57:15.673Z,99784.50
2022-11-24T03:59:44.551Z,99783.41
2022-11-24T04:02:14.358Z,99782.41
2022-11-24T04:05:06.812Z,99784.13
2022-11-24T04:07:33.676Z,99795.50
2022-11-24T04:10:04.477Z,99804.19
2022-11-24T04:12:46.288Z,99804.06
2022-11-24T04:15:20.981Z,99811.97
2022-11-24T04:17:50.575Z,99812.78
2022-11-24T04:20:17.518Z,99810.00
2022-11-24T04:22:44.160Z,99818.84
2022-11-24T04:25:11.743Z,99820.69
2022-11-24T04:27:39.389Z,99820.28
2022-11-24T04:30:08.096Z,99813.13
2022-11-24T04:32:35.793Z,99813.94
2022-11-24T04:35:04.208Z,99811.16
2022-11-24T04:37:31.021Z,99815.50
2022-11-24T04:40:00.395Z,99819.03
2022-11-24T04:42:27.235Z,99831.28
2022-11-24T04:44:55.840Z,99824.09
2022-11-24T04:47:26.337Z,99824.94
2022-11-24T04:49:53.995Z,99824.81
2022-11-24T04:52:24.536Z,99836.06
2022-11-24T04:54:52.445Z,99833.25
2022-11-24T04:57:29.605Z,99837.50
2022-11-24T04:59:56.413Z,99831.31
2022-11-24T05:02:24.079Z,99839.19
2022-11-24T05:04:51.194Z,99846.09
2022-11-24T05:07:19.769Z,99842.44
2022-11-24T05:10:06.254Z,99842.44
2022-11-24T05:12:33.576Z,99850.44
2022-11-24T05:15:04.140Z,99852.00
2022-11-24T05:17:38.701Z,99855.53
2022-11-24T05:20:07.712Z,99868.59
2022-11-24T05:22:35.089Z,99870.31
2022-11-24T05:25:02.131Z,99869.19
2022-11-24T05:27:29.647Z,99862.97
2022-11-24T05:29:56.886Z,99867.25
2022-11-24T05:32:24.022Z,99868.06
2022-11-24T05:34:51.199Z,99870.59
2022-11-24T05:37:18.087Z,99866.13
2022-11-24T05:39:47.890Z,99872.31
2022-11-24T05:42:32.968Z,99875.69
2022-11-24T05:44:59.744Z,99876.53
2022-11-24T05:47:35.194Z,99888.75
2022-11-24T05:50:01.849Z,99885.25
2022-11-24T05:52:28.655Z,99897.75
2022-11-24T05:54:55.416Z,99894.94
2022-11-24T05:57:22.068Z,99894.09
2022-11-24T05:59:48.740Z,99897.59
2022-11-24T06:02:15.774Z,99884.25
2022-11-24T06:04:44.491Z,99898.47
2022-11-24T06:07:13.009Z,99898.72
2022-11-24T06:09:43.048Z,99898.59
2022-11-24T06:12:12.730Z,99892.44
2022-11-24T06:14:40.374Z,99899.44
2022-11-24T06:17:08.132Z,99899.44
2022-11-24T06:19:40.037Z,99896.94
2022-11-24T06:22:08.384Z,99895.22
2022-11-24T06:24:35.035Z,99906.63
2022-11-24T06:27:01.792Z,99904.94
2022-11-24T06:29:28.463Z,99902.13
2022-11-24T06:34:36.438Z,99920.69
2022-11-24T06:37:05.482Z,99925.03
2022-11-24T06:53:06.488Z,99950.38
2022-11-24T06:55:33.361Z,99949.28
2022-11-24T06:57:59.963Z,99958.00
2022-11-24T07:00:29.218Z,99964.31
2022-11-24T07:24:45.933Z,99983.81
2022-11-24T07:27:12.560Z,99982.94
2022-11-24T07:35:04.438Z,99999.03
2022-11-24T07:37:31.966Z,99998.88
2022-11-24T07:39:58.907Z,99993.53
2022-11-24T07:42:25.607Z,100001.44
2022-11-24T07:44:52.200Z,99996.91
2022-11-24T08:11:38.715Z,100057.50
2022-11-24T08:27:45.385Z,100066.31
2022-11-24T08:30:13.391Z,100072.94
2022-11-24T08:32:40.026Z,100077.03
2022-11-24T08:35:13.984Z,100081.28
2022-11-24T08:37:41.020Z,100076.22
2022-11-24T08:40:08.881Z,100073.88
2022-11-24T08:42:35.470Z,100076.25
2022-11-24T08:45:19.425Z,100085.59
2022-11-24T08:47:54.235Z,100074.59
2022-11-24T08:50:23.952Z,100083.34
2022-11-24T08:52:53.684Z,100085.59
2022-11-24T08:55:21.340Z,100083.66
2022-11-24T08:57:48.023Z,100075.50
2022-11-24T09:00:22.119Z,100075.66
2022-11-24T09:02:59.473Z,100088.34
2022-11-24T09:05:50.585Z,100093.00
2022-11-24T09:08:12.903Z,100097.94
2022-11-24T09:10:43.094Z,100100.19
2022-11-24T09:13:09.687Z,100100.19
2022-11-24T09:15:38.262Z,100100.50
2022-11-24T09:18:05.386Z,100104.47
2022-11-24T09:20:32.155Z,100103.75
2022-11-24T09:22:58.958Z,100117.50
2022-11-24T09:25:25.638Z,100105.34
2022-11-24T09:27:52.349Z,100102.41
2022-11-24T09:30:20.310Z,100110.41
2022-11-24T09:32:47.005Z,100111.84
2022-11-24T09:35:13.797Z,100112.13
2022-11-24T09:37:40.508Z,100114.94
2022-11-24T09:40:14.236Z,100121.16
2022-11-24T09:43:24.216Z,100121.72
2022-11-24T09:46:27.002Z,100128.78
2022-11-24T09:48:58.468Z,100124.13
2022-11-24T09:51:37.007Z,100126.81
2022-11-24T09:54:19.569Z,100130.19
2022-11-24T09:56:49.000Z,100138.09
2022-11-24T10:24:51.828Z,100162.41
2022-11-24T10:33:30.017Z,100167.66
2022-11-24T10:56:24.439Z,100162.03
2022-11-24T11:01:35.900Z,100160.34
2022-11-24T11:04:03.603Z,100159.50
2022-11-24T11:06:32.338Z,100162.59
2022-11-24T11:09:08.426Z,100170.22
2022-11-24T11:34:59.443Z,100179.53
2022-11-24T11:37:32.841Z,100182.31
2022-11-24T11:40:02.268Z,100185.28
2022-11-24T11:51:46.577Z,100207.97
2022-11-24T11:54:54.300Z,100207.53
2022-11-24T12:00:39.631Z,100218.91
2022-11-24T12:03:45.166Z,100213.53
2022-11-24T12:39:20.849Z,100244.34
2022-11-24T12:42:45.525Z,100246.34
2022-11-24T12:45:22.233Z,100254.00
2022-11-24T12:48:37.204Z,100258.09
2022-11-24T12:51:17.131Z,100259.09
2022-11-24T12:53:49.596Z,100264.59
2022-11-24T12:56:35.520Z,100266.56
2022-11-24T12:59:20.405Z,100271.25
2022-11-24T13:02:18.298Z,100277.47
2022-11-24T13:05:24.990Z,100277.03
2022-11-24T13:08:05.304Z,100281.97
2022-11-24T13:14:31.256Z,100287.91
2022-11-24T13:19:49.999Z,100286.06
2022-11-24T13:22:26.442Z,100287.47
2022-11-24T13:25:32.853Z,100293.56
2022-11-24T13:28:03.733Z,100285.19
2022-11-24T13:30:34.941Z,100294.09
2022-11-24T13:33:16.821Z,100288.31
2022-11-24T13:36:02.261Z,100294.41
2022-11-24T13:38:49.315Z,100299.06
2022-11-24T13:41:37.195Z,100300.06
2022-11-24T13:44:16.450Z,100304.59
2022-11-24T13:47:07.320Z,100305.88
2022-11-24T13:49:52.272Z,100308.69
2022-11-24T13:52:47.325Z,100314.91
2022-11-24T13:55:13.847Z,100319.28
2022-11-24T13:57:52.391Z,100319.44
2022-11-24T14:00:35.454Z,100327.63
2022-11-24T14:03:29.955Z,100323.38
2022-11-24T14:06:03.125Z,100330.59
2022-11-24T14:08:37.402Z,100330.72
2022-11-24T14:11:14.745Z,100333.41
2022-11-24T14:13:41.381Z,100321.44
2022-11-24T14:16:23.166Z,100331.31
2022-11-24T14:18:52.275Z,100340.66
2022-11-24T14:21:27.811Z,100347.16
2022-11-24T14:24:11.791Z,100344.88
2022-11-24T14:26:41.470Z,100345.16
2022-11-24T14:29:22.344Z,100356.88
2022-11-24T14:31:59.427Z,100362.38
2022-11-24T14:34:35.771Z,100357.16
2022-11-24T14:37:02.748Z,100363.66
2022-11-24T14:39:30.246Z,100368.19
2022-11-24T14:42:27.393Z,100375.38
2022-11-24T14:45:03.678Z,100372.00
2022-11-24T14:47:45.308Z,100367.88
2022-11-24T14:50:23.316Z,100386.97
2022-11-24T14:52:57.880Z,100385.66
2022-11-24T14:55:37.777Z,100383.25
2022-11-24T14:58:30.894Z,100389.75
2022-11-24T15:01:36.428Z,100397.94
2022-11-24T15:07:29.457Z,100400.75
2022-11-24T15:10:01.320Z,100401.75
2022-11-24T15:12:48.257Z,100402.00
2022-11-24T15:15:16.921Z,100412.59
2022-11-24T15:17:53.510Z,100410.03
2022-11-24T15:20:48.667Z,100407.78
2022-11-24T15:23:29.660Z,100412.88
2022-11-24T15:26:34.213Z,100416.69
2022-11-24T15:29:05.026Z,100420.50
2022-11-24T15:31:32.408Z,100420.63
2022-11-24T15:33:59.074Z,100424.28
2022-11-24T15:36:25.772Z,100427.97
2022-11-24T15:38:52.511Z,100431.59
2022-11-24T15:41:32.137Z,100437.13
2022-11-24T15:43:59.181Z,100437.25
2022-11-24T15:46:29.280Z,100438.25
2022-11-24T15:48:57.227Z,100433.16
2022-11-24T16:32:06.835Z,100423.72
2022-11-24T16:48:01.642Z,100427.47
2022-11-24T16:55:59.170Z,100430.03
2022-11-24T17:20:00.552Z,100449.63
2022-11-24T17:27:52.411Z,100454.72
2022-11-24T17:30:19.615Z,100456.91
2022-11-24T17:32:46.308Z,100464.56
2022-11-24T17:35:13.140Z,100463.94
2022-11-24T17:45:43.604Z,100475.22
2022-11-24T17:51:16.599Z,100475.97
2022-11-24T17:53:48.450Z,100479.72
2022-11-24T17:56:24.999Z,100478.97
2022-11-24T17:58:59.287Z,100481.03
2022-11-24T18:09:33.707Z,100496.16
2022-11-24T18:12:00.435Z,100492.41
2022-11-24T18:14:27.140Z,100499.91
2022-11-24T18:16:54.345Z,100503.19
2022-11-24T18:27:30.923Z,100522.72
2022-11-24T18:32:41.330Z,100531.28
2022-11-24T18:43:13.783Z,100537.44
2022-11-24T18:51:17.355Z,100523.88
2022-11-24T18:53:46.607Z,100513.91
2022-11-24T19:09:51.147Z,100517.44
2022-11-24T19:31:18.398Z,100532.38
2022-11-24T19:33:48.513Z,100529.97
2022-11-24T19:36:20.056Z,100537.16
2022-11-24T19:38:54.045Z,100537.41
2022-11-24T19:41:25.110Z,100538.06
2022-11-24T19:43:55.099Z,100542.44
2022-11-24T19:46:29.294Z,100552.72
2022-11-24T19:49:00.909Z,100558.72
2022-11-24T20:10:26.147Z,100562.28
2022-11-24T20:23:46.640Z,100574.19
2022-11-24T20:50:53.500Z,100601.84
2022-11-24T20:53:28.855Z,100599.59
2022-11-24T21:12:34.882Z,100611.03
2022-11-24T21:15:07.725Z,100614.94
2022-11-24T21:17:37.097Z,100616.59
2022-11-24T21:20:04.400Z,100613.78
2022-11-24T21:22:30.983Z,100619.53
2022-11-24T21:24:57.874Z,100626.72
2022-11-24T21:27:27.098Z,100628.19
2022-11-24T21:29:53.754Z,100628.91
2022-11-24T21:32:21.647Z,100628.28
2022-11-24T21:34:48.278Z,100625.09
2022-11-24T21:37:14.961Z,100629.38
2022-11-24T21:39:48.066Z,100623.81
2022-11-24T21:42:14.774Z,100626.50
2022-11-24T21:44:43.774Z,100622.88
2022-11-24T21:47:12.535Z,100622.22
2022-11-24T21:49:39.141Z,100620.31
2022-11-24T21:52:05.836Z,100625.88
2022-11-24T21:54:32.748Z,100626.16
2022-11-24T21:56:59.763Z,100624.91
2022-11-24T21:59:32.343Z,100629.16
2022-11-24T22:01:59.122Z,100623.94
2022-11-24T22:04:25.922Z,100629.91
2022-11-24T22:06:53.637Z,100640.91
2022-11-24T22:09:20.356Z,100627.47
2022-11-24T22:11:52.042Z,100624.47
2022-11-24T22:14:18.861Z,100636.72
2022-11-24T22:16:45.957Z,100630.66
2022-11-24T22:19:12.713Z,100628.22
2022-11-24T22:21:39.499Z,100629.50
2022-11-24T22:24:07.010Z,100635.38
2022-11-24T22:26:33.737Z,100628.06
2022-11-24T22:29:02.896Z,100634.88
2022-11-24T22:31:32.722Z,100645.13
2022-11-24T22:34:01.111Z,100644.63
2022-11-24T22:36:30.377Z,100645.88
2022-11-24T22:39:05.554Z,100648.13
2022-11-24T22:41:37.859Z,100643.09
2022-11-24T22:44:05.524Z,100639.06
2022-11-24T22:46:32.766Z,100649.84
2022-11-24T22:49:01.431Z,100640.47
2022-11-24T22:51:34.896Z,100656.47
2022-11-24T22:54:04.994Z,100646.84
2022-11-24T22:56:36.865Z,100647.81
2022-11-24T22:59:04.570Z,100653.13
2022-11-24T23:01:33.841Z,100653.88
2022-11-24T23:04:00.866Z,100641.63
2022-11-24T23:06:31.936Z,100652.06
2022-11-24T23:09:12.015Z,100652.91
2022-11-24T23:11:41.629Z,100657.16
2022-11-24T23:14:15.948Z,100659.97
2022-11-24T23:16:43.711Z,100659.00
2022-11-24T23:19:13.907Z,100654.63
2022-11-24T23:21:40.571Z,100659.84
2022-11-24T23:24:08.827Z,100659.84
2022-11-24T23:26:40.909Z,100658.81
2022-11-24T23:29:13.700Z,100658.91
2022-11-24T23:31:40.489Z,100659.84
2022-11-24T23:34:07.780Z,100652.81
2022-11-24T23:36:36.899Z,100648.25
2022-11-24T23:39:12.541Z,100655.38
2022-11-24T23:41:39.860Z,100660.41
2022-11-24T23:44:11.490Z,100652.50
2022-11-24T23:46:38.205Z,100656.00
2022-11-24T23:49:04.875Z,100657.59
2022-11-24T23:51:33.625Z,100646.84
2022-11-24T23:54:01.361Z,100645.16
2022-11-24T23:56:33.282Z,100642.59
2022-11-24T23:59:03.035Z,100642.69
